Time;durP1;ratioP1;P1;durP2;ratioP2;P2;SDS_P1;SDS_P2;PMS_P1;PMS_P2;Temp;Humidity;BMP_temperature;BMP_pressure;BME280_temperature;BME280_humidity;BME280_pressure;Samples;Min_cycle;Max_cycle;Signal;HPM_P1;HPM_P2
2022/10/28 00:02:01;;;;;;;1.23;1.13;;;13.70;95.00;13.00;96771.00;;;;5096850;28;20222;-56
2022/10/28 00:04:29;;;;;;;1.97;1.30;;;13.70;95.20;13.00;96770.00;;;;5096898;28;20194;-56
2022/10/28 00:06:57;;;;;;;1.73;1.63;;;13.70;95.20;12.90;96766.00;;;;5096690;28;20669;-56
2022/10/28 00:09:24;;;;;;;0.50;0.50;;;13.70;95.20;13.00;96760.00;;;;5096635;28;20222;-55
2022/10/28 00:11:50;;;;;;;0.90;0.90;;;13.70;95.40;12.90;96768.00;;;;5096697;28;20209;-58
2022/10/28 00:14:19;;;;;;;0.80;0.80;;;13.70;95.10;12.90;96773.00;;;;5096542;28;20269;-56
2022/10/28 00:16:45;;;;;;;1.20;1.13;;;13.60;95.00;12.90;96766.00;;;;5096451;28;20674;-57
2022/10/28 00:19:13;;;;;;;0.77;0.77;;;13.60;94.90;12.90;96767.00;;;;5096645;28;20274;-56
2022/10/28 00:21:42;;;;;;;0.70;0.70;;;13.60;95.10;12.90;96757.00;;;;5096615;28;20218;-56
2022/10/28 00:24:11;;;;;;;9.50;2.00;;;13.60;95.00;12.90;96773.00;;;;5096915;28;20203;-60
2022/10/28 00:26:41;;;;;;;1.10;1.10;;;13.60;94.70;12.80;96771.00;;;;5096377;28;20223;-56
2022/10/28 00:29:10;;;;;;;1.53;1.37;;;13.50;94.80;12.70;96770.00;;;;5095811;28;20217;-57
2022/10/28 00:31:39;;;;;;;0.83;0.83;;;13.50;95.00;12.70;96768.00;;;;5078434;28;20230;-57
2022/10/28 00:34:10;;;;;;;5.80;1.83;;;13.40;95.40;12.70;96760.00;;;;5096369;28;20214;-57
2022/10/28 00:36:42;;;;;;;1.00;1.00;;;13.40;95.40;12.60;96763.00;;;;5096319;28;20218;-56
2022/10/28 00:39:14;;;;;;;4.90;2.20;;;13.30;96.20;12.60;96771.00;;;;5096334;28;20199;-56
2022/10/28 00:41:43;;;;;;;0.77;0.77;;;13.30;95.90;12.60;96764.00;;;;5096142;28;20191;-56
2022/10/28 00:44:51;;;;;;;0.90;0.90;;;13.30;95.70;12.60;96773.00;;;;5096443;28;20195;-56
2022/10/28 00:47:30;;;;;;;0.83;0.83;;;13.30;96.10;12.60;96765.00;;;;5094133;28;20210;-57
2022/10/28 00:50:10;;;;;;;1.53;1.33;;;13.30;96.60;12.60;96765.00;;;;5096150;28;20696;-57
2022/10/28 00:52:39;;;;;;;1.20;1.10;;;13.30;96.00;12.70;96756.00;;;;5095117;28;20202;-57
2022/10/28 00:55:08;;;;;;;0.90;0.90;;;13.30;96.00;12.60;96763.00;;;;5096247;28;20209;-57
2022/10/28 00:57:40;;;;;;;0.87;0.87;;;13.40;95.80;12.60;96762.00;;;;5096068;28;20210;-57
2022/10/28 01:00:09;;;;;;;1.00;1.00;;;13.40;95.70;12.60;96765.00;;;;5095838;28;20301;-56
2022/10/28 01:02:44;;;;;;;0.97;0.97;;;13.30;95.50;12.60;96758.00;;;;5095933;28;20202;-58
2022/10/28 01:05:14;;;;;;;0.80;0.80;;;13.30;95.40;12.60;96757.00;;;;5095942;28;20662;-56
2022/10/28 01:07:43;;;;;;;1.60;1.50;;;13.30;95.40;12.50;96755.00;;;;5095316;28;20187;-57
2022/10/28 01:10:12;;;;;;;1.10;1.10;;;13.30;95.60;12.50;96759.00;;;;5095637;28;20283;-57
2022/10/28 01:12:56;;;;;;;3.50;1.97;;;13.20;95.50;12.60;96756.00;;;;5095804;28;20202;-57
2022/10/28 01:15:36;;;;;;;0.70;0.70;;;13.30;95.60;12.50;96749.00;;;;5094946;28;20499;-57
2022/10/28 01:18:18;;;;;;;1.40;1.40;;;13.30;95.20;12.50;96750.00;;;;5094752;28;20676;-58
2022/10/28 01:21:39;;;;;;;0.67;0.67;;;13.30;95.10;12.50;96743.00;;;;5095650;28;20198;-58
2022/10/28 01:24:27;;;;;;;3.13;0.97;;;13.20;95.30;12.40;96748.00;;;;5057781;28;20221;-57
2022/10/28 01:27:37;;;;;;;0.90;0.90;;;13.10;95.10;12.40;96741.00;;;;5094513;28;20239;-57
2022/10/28 01:30:12;;;;;;;1.20;1.20;;;13.10;95.50;12.40;96736.00;;;;5095646;28;20214;-56
2022/10/28 01:32:53;;;;;;;1.00;1.00;;;13.10;95.50;12.40;96739.00;;;;5095304;28;20228;-56
2022/10/28 01:35:28;;;;;;;0.80;0.80;;;13.10;95.50;12.30;96744.00;;;;5095521;28;20210;-57
2022/10/28 01:38:23;;;;;;;1.00;1.00;;;13.10;95.60;12.40;96742.00;;;;5095120;28;20226;-56
2022/10/28 01:41:03;;;;;;;1.10;1.07;;;13.00;95.60;12.30;96742.00;;;;5095388;28;20213;-55
2022/10/28 01:43:41;;;;;;;0.83;0.83;;;13.10;95.70;12.30;96742.00;;;;5095082;28;20232;-57
2022/10/28 01:46:13;;;;;;;2.07;1.33;;;13.10;95.60;12.30;96721.00;;;;5095145;28;20638;-57
2022/10/28 01:48:47;;;;;;;0.90;0.90;;;13.10;95.60;12.30;96746.00;;;;5094074;28;20639;-56
2022/10/28 01:51:20;;;;;;;0.70;0.70;;;13.00;96.20;12.30;96740.00;;;;5095121;28;20202;-57
2022/10/28 01:53:54;;;;;;;0.50;0.50;;;13.00;95.60;12.30;96745.00;;;;5094293;28;20202;-56
2022/10/28 01:56:27;;;;;;;1.47;1.37;;;12.90;95.80;12.20;96720.00;;;;5095075;28;20226;-57
2022/10/28 01:58:57;;;;;;;0.70;0.70;;;13.00;95.20;12.10;96731.00;;;;5095045;28;20209;-58
2022/10/28 02:01:26;;;;;;;1.53;1.43;;;12.90;95.70;12.10;96736.00;;;;5095015;28;20233;-62
2022/10/28 02:03:55;;;;;;;0.87;0.87;;;12.80;96.00;12.00;96708.00;;;;5094108;28;20561;-58
2022/10/28 02:06:27;;;;;;;1.13;1.13;;;12.70;95.10;12.00;96725.00;;;;5094784;28;20229;-58
2022/10/28 02:09:16;;;;;;;2.23;1.60;;;12.70;95.00;11.90;96723.00;;;;5094801;28;20293;-63
2022/10/28 02:12:17;;;;;;;0.80;0.80;;;12.60;94.50;11.70;96723.00;;;;5076805;28;20229;-58
2022/10/28 02:15:17;;;;;;;0.73;0.73;;;12.50;94.00;11.80;96724.00;;;;5094713;28;20293;-58
2022/10/28 02:18:11;;;;;;;1.73;1.63;;;12.50;94.80;11.80;96719.00;;;;5094707;28;20837;-60
2022/10/28 02:20:48;;;;;;;0.70;0.70;;;12.50;95.30;11.80;96729.00;;;;5092837;28;20198;-63
2022/10/28 02:23:32;;;;;;;0.80;0.80;;;12.40;95.10;11.80;96722.00;;;;5094827;28;20223;-60
2022/10/28 02:26:12;;;;;;;0.80;0.80;;;12.50;95.40;11.80;96721.00;;;;5094646;28;20195;-60
2022/10/28 02:28:49;;;;;;;1.70;1.60;;;12.50;95.70;11.80;96713.00;;;;5093600;28;20237;-56
2022/10/28 02:31:25;;;;;;;1.00;1.00;;;12.50;95.10;11.80;96718.00;;;;5094565;28;20202;-57
2022/10/28 02:33:58;;;;;;;1.23;1.17;;;12.50;95.80;11.80;96717.00;;;;5094405;28;20279;-56
2022/10/28 02:36:30;;;;;;;1.17;1.17;;;12.50;96.10;11.70;96718.00;;;;5094535;28;20194;-57
2022/10/28 02:39:02;;;;;;;5.57;2.53;;;12.40;95.80;11.80;96713.00;;;;5094297;28;20226;-58
2022/10/28 02:41:35;;;;;;;1.50;1.37;;;12.50;96.20;11.80;96713.00;;;;5094301;28;20195;-57
2022/10/28 02:44:10;;;;;;;0.87;0.87;;;12.50;95.70;11.80;96721.00;;;;5094231;28;20592;-58
2022/10/28 02:46:40;;;;;;;1.20;1.20;;;12.50;95.80;11.70;96724.00;;;;5094204;28;20194;-56
2022/10/28 02:49:13;;;;;;;1.37;1.27;;;12.30;95.40;11.70;96715.00;;;;5093196;28;20207;-57
2022/10/28 02:51:45;;;;;;;0.87;0.87;;;12.40;95.60;11.60;96698.00;;;;5094037;28;20225;-56
2022/10/28 02:54:16;;;;;;;1.10;1.10;;;12.30;95.60;11.70;96710.00;;;;5094128;28;20230;-57
2022/10/28 02:56:54;;;;;;;0.70;0.70;;;12.40;96.20;11.80;96697.00;;;;5093190;28;20573;-57
2022/10/28 02:59:24;;;;;;;0.93;0.93;;;12.40;96.20;11.80;96715.00;;;;5094041;28;20190;-60
2022/10/28 03:01:51;;;;;;;2.13;1.93;;;12.50;96.30;11.80;96715.00;;;;5076059;28;20241;-58
2022/10/28 03:04:17;;;;;;;1.37;1.33;;;12.50;96.30;11.90;96706.00;;;;5093978;28;20202;-56
2022/10/28 03:06:44;;;;;;;0.70;0.70;;;12.50;96.20;11.90;96706.00;;;;5093977;28;20193;-56
2022/10/28 03:09:11;;;;;;;1.63;1.03;;;12.60;96.80;11.90;96710.00;;;;5093882;28;20194;-56
2022/10/28 03:11:37;;;;;;;0.80;0.80;;;12.50;95.50;11.80;96710.00;;;;5093851;28;20197;-58
2022/10/28 03:14:04;;;;;;;0.93;0.93;;;12.60;95.90;11.80;96708.00;;;;5093746;28;20223;-56
2022/10/28 03:16:30;;;;;;;3.23;1.53;;;12.50;96.20;11.90;96703.00;;;;5093730;28;20218;-57
2022/10/28 03:18:57;;;;;;;7.80;1.47;;;12.60;96.10;11.90;96709.00;;;;5093634;28;20222;-56
2022/10/28 03:21:23;;;;;;;1.03;1.03;;;12.50;96.20;11.90;96702.00;;;;5075747;28;20274;-58
2022/10/28 03:23:50;;;;;;;1.33;1.33;;;12.60;96.20;11.90;96699.00;;;;5093775;28;20820;-56
2022/10/28 03:26:19;;;;;;;1.60;1.50;;;12.60;96.30;11.90;96696.00;;;;5094218;28;20194;-56
2022/10/28 03:28:47;;;;;;;0.87;0.87;;;12.60;96.10;12.10;96694.00;;;;5093875;28;20229;-57
2022/10/28 03:31:14;;;;;;;1.37;1.37;;;12.70;97.20;12.10;96690.00;;;;5092250;28;20216;-57
2022/10/28 03:33:43;;;;;;;0.97;0.97;;;12.70;97.00;12.00;96699.00;;;;5093520;28;20293;-56
2022/10/28 03:36:09;;;;;;;2.53;1.87;;;12.70;96.70;12.00;96690.00;;;;5093342;28;20227;-58
2022/10/28 03:38:36;;;;;;;0.97;0.97;;;12.70;96.80;12.00;96694.00;;;;5093239;28;20674;-56
2022/10/28 03:41:03;;;;;;;15.20;1.17;;;12.70;97.20;12.10;96690.00;;;;5093378;28;20230;-57
2022/10/28 03:43:29;;;;;;;1.23;1.23;;;12.70;97.50;12.00;96687.00;;;;5093322;28;20207;-56
2022/10/28 03:45:56;;;;;;;1.10;1.10;;;12.70;96.40;11.90;96679.00;;;;5075299;28;20534;-54
2022/10/28 03:48:22;;;;;;;2.33;1.20;;;12.60;96.80;11.90;96670.00;;;;5092347;28;20228;-55
2022/10/28 03:50:53;;;;;;;0.67;0.67;;;12.70;97.20;12.00;96684.00;;;;5093264;28;20183;-55
2022/10/28 03:53:22;;;;;;;1.20;1.10;;;12.70;97.40;12.10;96668.00;;;;5093421;28;20236;-56
2022/10/28 03:55:52;;;;;;;1.03;1.03;;;12.70;97.50;12.00;96670.00;;;;5092246;28;20205;-55
2022/10/28 03:58:19;;;;;;;0.70;0.70;;;12.70;97.10;12.10;96681.00;;;;5093186;28;20279;-55
2022/10/28 04:00:47;;;;;;;1.13;1.13;;;12.70;96.80;12.10;96688.00;;;;5093189;28;20205;-55
2022/10/28 04:03:14;;;;;;;1.17;1.10;;;12.70;97.00;12.00;96679.00;;;;5093046;28;20241;-55
2022/10/28 04:05:41;;;;;;;3.10;1.53;;;12.70;97.10;12.10;96682.00;;;;5092999;28;20217;-55
2022/10/28 04:08:08;;;;;;;0.80;0.80;;;12.70;97.60;12.20;96683.00;;;;5092990;28;20225;-54
2022/10/28 04:10:34;;;;;;;5.80;1.87;;;12.80;97.20;12.10;96680.00;;;;5093119;28;20819;-60
2022/10/28 04:13:02;;;;;;;0.93;0.93;;;12.80;97.00;12.20;96689.00;;;;5092843;28;20218;-55
2022/10/28 04:15:30;;;;;;;7.90;2.50;;;12.80;97.20;12.20;96688.00;;;;5093006;28;20559;-55
2022/10/28 04:17:56;;;;;;;0.80;0.80;;;12.90;97.40;12.30;96680.00;;;;5092812;28;20701;-55
2022/10/28 04:20:23;;;;;;;1.00;1.00;;;12.90;97.30;12.30;96685.00;;;;5075351;28;20202;-56
2022/10/28 04:22:50;;;;;;;1.43;1.43;;;13.00;96.60;12.30;96684.00;;;;5092654;28;20278;-55
2022/10/28 04:25:16;;;;;;;0.67;0.67;;;13.00;96.70;12.30;96684.00;;;;5092827;28;20212;-55
2022/10/28 04:27:44;;;;;;;0.97;0.97;;;12.90;96.30;12.30;96683.00;;;;5092840;28;20308;-55
2022/10/28 04:30:11;;;;;;;4.93;1.33;;;13.00;96.70;12.30;96675.00;;;;5092836;28;20195;-55
2022/10/28 04:32:39;;;;;;;0.97;0.97;;;12.90;96.50;12.30;96678.00;;;;5091764;28;20235;-57
2022/10/28 04:35:06;;;;;;;1.87;1.77;;;13.00;96.40;12.30;96674.00;;;;5092833;28;20291;-55
2022/10/28 04:37:32;;;;;;;0.80;0.80;;;13.00;97.00;12.30;96670.00;;;;5092653;28;20229;-57
2022/10/28 04:39:59;;;;;;;0.87;0.87;;;12.90;96.80;12.30;96668.00;;;;5092750;28;20199;-55
2022/10/28 04:42:26;;;;;;;1.13;0.87;;;12.90;96.70;12.20;96673.00;;;;5092596;28;20198;-55
2022/10/28 04:44:54;;;;;;;1.03;1.03;;;12.80;95.90;12.10;96671.00;;;;5094783;28;20206;-57
2022/10/28 04:47:23;;;;;;;2.73;1.13;;;12.80;95.80;12.00;96672.00;;;;5096004;28;20255;-57
2022/10/28 04:49:51;;;;;;;0.90;0.90;;;12.70;96.40;12.10;96667.00;;;;5096035;28;20195;-57
2022/10/28 04:52:17;;;;;;;0.50;0.50;;;12.70;97.00;12.00;96667.00;;;;5095931;28;20195;-57
2022/10/28 04:54:46;;;;;;;0.80;0.80;;;12.70;96.70;12.00;96672.00;;;;5095989;28;20194;-60
2022/10/28 04:57:12;;;;;;;1.20;1.20;;;12.80;96.80;12.10;96672.00;;;;5095855;28;20223;-57
2022/10/28 04:59:39;;;;;;;0.83;0.83;;;12.70;95.80;12.00;96671.00;;;;5078223;28;20206;-60
2022/10/28 05:02:05;;;;;;;0.70;0.70;;;12.60;95.60;12.00;96664.00;;;;5095971;28;20209;-56
2022/10/28 05:04:34;;;;;;;2.53;1.80;;;12.70;96.50;11.80;96650.00;;;;5095971;28;20213;-55
2022/10/28 05:07:01;;;;;;;1.03;1.03;;;12.60;97.30;11.80;96660.00;;;;5077989;28;20195;-57
2022/10/28 05:09:27;;;;;;;2.53;1.17;;;12.50;97.60;11.90;96661.00;;;;5095904;28;20219;-58
2022/10/28 05:11:53;;;;;;;0.83;0.83;;;12.50;97.50;12.00;96653.00;;;;5094657;28;20209;-57
2022/10/28 05:14:20;;;;;;;1.10;1.10;;;12.60;97.50;12.00;96663.00;;;;5095488;28;20222;-58
2022/10/28 05:16:46;;;;;;;7.93;1.23;;;12.70;97.00;12.00;96665.00;;;;5077707;28;20233;-57
2022/10/28 05:19:13;;;;;;;0.70;0.70;;;12.70;96.90;12.10;96644.00;;;;5098352;28;20225;-58
2022/10/28 05:21:39;;;;;;;0.90;0.90;;;12.80;96.80;12.10;96666.00;;;;5096531;28;20205;-57
2022/10/28 05:24:07;;;;;;;1.37;1.10;;;12.80;96.70;12.10;96669.00;;;;5095600;28;20218;-57
2022/10/28 05:26:36;;;;;;;0.83;0.83;;;12.80;96.50;12.20;96674.00;;;;5095569;28;20263;-58
2022/10/28 05:29:02;;;;;;;0.90;0.90;;;12.80;96.40;12.20;96673.00;;;;5077592;28;20253;-56
2022/10/28 05:31:29;;;;;;;1.10;1.10;;;12.90;96.00;12.20;96670.00;;;;5095406;28;20202;-56
2022/10/28 05:33:55;;;;;;;2.00;1.43;;;12.90;95.90;12.30;96664.00;;;;5095418;28;20559;-59
2022/10/28 05:36:22;;;;;;;4.53;1.23;;;12.90;95.90;12.40;96673.00;;;;5095391;28;20214;-61
2022/10/28 05:38:48;;;;;;;1.67;1.57;;;13.00;95.80;12.20;96667.00;;;;5095414;28;20298;-58
2022/10/28 05:41:15;;;;;;;0.77;0.77;;;12.90;94.50;12.10;96665.00;;;;5095603;28;20278;-60
2022/10/28 05:43:42;;;;;;;1.00;0.90;;;12.90;94.90;12.20;96660.00;;;;5095667;28;20320;-58
2022/10/28 05:46:11;;;;;;;1.70;1.27;;;12.80;95.30;12.20;96651.00;;;;5094514;28;20206;-58
2022/10/28 05:48:37;;;;;;;0.50;0.50;;;12.90;95.60;12.40;96643.00;;;;5095166;28;20226;-58
2022/10/28 05:51:04;;;;;;;1.43;1.30;;;13.00;94.60;12.40;96647.00;;;;5095179;28;20258;-57
2022/10/28 05:53:30;;;;;;;4.27;2.97;;;13.00;95.00;12.50;96652.00;;;;5094013;28;20786;-56
2022/10/28 05:55:56;;;;;;;0.90;0.90;;;13.10;94.40;12.20;96651.00;;;;5095129;28;20199;-57
2022/10/28 05:58:23;;;;;;;1.20;1.10;;;12.90;94.00;12.10;96652.00;;;;5094890;28;20206;-56
2022/10/28 06:00:50;;;;;;;0.90;0.90;;;12.80;94.20;12.10;96645.00;;;;5094905;28;20190;-58
2022/10/28 06:03:16;;;;;;;1.13;0.90;;;12.80;94.40;12.10;96647.00;;;;5095078;28;20198;-56
2022/10/28 06:05:44;;;;;;;1.23;0.93;;;12.80;94.80;12.10;96648.00;;;;5094988;28;20199;-57
2022/10/28 06:08:12;;;;;;;1.27;1.13;;;12.80;94.80;12.10;96641.00;;;;5094895;28;20209;-56
2022/10/28 06:10:48;;;;;;;1.90;1.07;;;12.80;94.90;12.10;96642.00;;;;5094790;28;20207;-57
2022/10/28 06:13:14;;;;;;;0.90;0.90;;;12.80;94.80;12.20;96642.00;;;;5094882;28;20337;-56
2022/10/28 06:15:42;;;;;;;0.80;0.80;;;12.90;95.00;12.20;96645.00;;;;5094739;28;20199;-56
2022/10/28 06:18:10;;;;;;;0.90;0.90;;;12.90;95.10;12.20;96642.00;;;;5094554;28;20226;-56
2022/10/28 06:20:36;;;;;;;0.90;0.90;;;12.90;95.00;12.30;96637.00;;;;5094040;28;20491;-55
2022/10/28 06:23:03;;;;;;;2.20;1.13;;;12.90;94.80;12.30;96642.00;;;;5094830;28;20191;-57
2022/10/28 06:25:31;;;;;;;0.87;0.87;;;13.00;94.90;12.40;96648.00;;;;5094833;28;20578;-57
2022/10/28 06:28:01;;;;;;;1.27;1.23;;;13.00;94.10;12.20;96643.00;;;;5094755;28;20191;-55
2022/10/28 06:30:28;;;;;;;1.20;1.20;;;12.90;94.00;12.30;96643.00;;;;5094379;28;20226;-57
2022/10/28 06:32:57;;;;;;;1.47;1.37;;;13.00;94.50;12.30;96640.00;;;;5094495;28;20305;-57
2022/10/28 06:35:24;;;;;;;1.77;1.67;;;13.00;94.50;12.40;96661.00;;;;5094410;28;20379;-56
2022/10/28 06:37:54;;;;;;;1.17;1.17;;;13.00;94.50;12.50;96639.00;;;;5094282;28;20226;-56
2022/10/28 06:40:21;;;;;;;1.63;1.53;;;13.10;94.70;12.50;96657.00;;;;5094411;28;20218;-54
2022/10/28 06:42:47;;;;;;;1.07;1.00;;;13.20;94.50;12.70;96649.00;;;;5094273;28;20211;-55
2022/10/28 06:45:17;;;;;;;2.80;1.90;;;13.20;94.60;12.70;96663.00;;;;5094543;28;20550;-56
2022/10/28 06:47:43;;;;;;;1.00;1.00;;;13.30;94.20;12.70;96679.00;;;;5094683;28;20635;-55
2022/10/28 06:50:10;;;;;;;1.07;1.07;;;13.30;93.20;12.40;96654.00;;;;5093356;28;20636;-55
2022/10/28 06:52:39;;;;;;;1.27;1.27;;;13.30;93.90;12.80;96675.00;;;;5094188;28;20199;-56
2022/10/28 06:55:07;;;;;;;1.37;1.27;;;13.40;93.60;12.70;96679.00;;;;5094259;28;20198;-56
2022/10/28 06:57:35;;;;;;;0.60;0.60;;;13.40;93.60;12.70;96682.00;;;;5094558;28;20230;-55
2022/10/28 07:00:03;;;;;;;1.53;1.43;;;13.40;93.80;12.80;96685.00;;;;5094441;28;20234;-55
2022/10/28 07:02:29;;;;;;;0.70;0.70;;;13.40;93.80;12.90;96678.00;;;;5094317;28;20242;-55
2022/10/28 07:04:56;;;;;;;2.10;1.37;;;13.50;94.00;12.90;96682.00;;;;5094165;28;20207;-56
2022/10/28 07:07:23;;;;;;;0.80;0.80;;;13.50;93.70;13.00;96687.00;;;;5093638;28;20269;-56
2022/10/28 07:09:50;;;;;;;0.70;0.70;;;13.60;93.50;13.00;96689.00;;;;5094205;28;20205;-56
2022/10/28 07:12:16;;;;;;;1.13;1.10;;;13.70;93.50;13.10;96680.00;;;;5094106;28;20195;-55
2022/10/28 07:14:45;;;;;;;0.80;0.80;;;13.80;92.70;13.20;96690.00;;;;5093891;28;20222;-55
2022/10/28 07:17:11;;;;;;;1.10;1.10;;;13.80;92.30;13.30;96683.00;;;;5093861;28;20214;-55
2022/10/28 07:19:38;;;;;;;0.70;0.70;;;14.00;92.00;13.50;96683.00;;;;5093916;28;20257;-55
2022/10/28 07:22:05;;;;;;;1.43;1.33;;;14.00;91.50;13.60;96686.00;;;;5093939;28;20222;-56
2022/10/28 07:24:34;;;;;;;0.97;0.97;;;14.20;91.10;13.60;96694.00;;;;5093859;28;20268;-55
2022/10/28 07:27:00;;;;;;;1.27;1.27;;;14.20;90.20;13.50;96703.00;;;;5093826;28;20214;-56
2022/10/28 07:29:27;;;;;;;1.20;1.10;;;14.10;90.70;13.60;96699.00;;;;5093809;28;20281;-56
2022/10/28 07:31:54;;;;;;;2.50;1.90;;;14.20;90.40;13.60;96703.00;;;;5093996;28;20297;-56
2022/10/28 07:34:21;;;;;;;0.93;0.93;;;14.20;90.00;13.60;96701.00;;;;5093753;28;20277;-62
2022/10/28 07:36:49;;;;;;;1.40;1.30;;;14.20;89.50;13.60;96697.00;;;;5093666;28;20647;-57
2022/10/28 07:39:18;;;;;;;0.90;0.90;;;14.20;89.40;13.70;96703.00;;;;5093652;28;20221;-56
2022/10/28 07:41:46;;;;;;;0.87;0.87;;;14.30;89.20;13.70;96711.00;;;;5093881;28;20667;-56
2022/10/28 07:44:13;;;;;;;0.83;0.83;;;14.30;88.10;13.80;96710.00;;;;5093513;28;20268;-57
2022/10/28 07:46:42;;;;;;;0.70;0.70;;;14.40;88.00;13.90;96711.00;;;;5092657;28;20194;-57
2022/10/28 07:49:09;;;;;;;1.03;1.03;;;14.50;88.10;13.90;96715.00;;;;5093461;28;20233;-57
2022/10/28 07:51:35;;;;;;;1.30;1.20;;;14.50;87.80;14.00;96715.00;;;;5093543;28;20654;-59
2022/10/28 07:54:04;;;;;;;1.90;1.43;;;14.50;87.60;14.00;96718.00;;;;5093474;28;20222;-58
2022/10/28 07:56:30;;;;;;;1.07;1.07;;;14.60;87.30;14.10;96717.00;;;;5093302;28;20301;-56
2022/10/28 07:58:59;;;;;;;2.83;0.90;;;14.70;87.40;14.10;96718.00;;;;5093323;28;20277;-56
2022/10/28 08:01:26;;;;;;;3.73;1.63;;;14.70;86.90;14.20;96724.00;;;;5093403;28;20283;-58
2022/10/28 08:03:52;;;;;;;0.80;0.80;;;14.80;86.60;14.30;96724.00;;;;5093322;28;20260;-63
2022/10/28 08:06:21;;;;;;;0.70;0.70;;;14.80;85.70;14.30;96718.00;;;;5092350;28;20253;-56
2022/10/28 08:08:54;;;;;;;1.03;1.03;;;14.90;85.40;14.40;96707.00;;;;5093206;28;20666;-56
2022/10/28 08:11:22;;;;;;;2.00;1.90;;;14.90;85.60;14.40;96705.00;;;;5093241;28;21034;-57
2022/10/28 08:13:50;;;;;;;0.90;0.90;;;15.00;84.70;14.50;96696.00;;;;5093204;28;20206;-57
2022/10/28 08:16:18;;;;;;;1.07;1.07;;;15.10;84.70;14.60;96705.00;;;;5093200;28;20266;-55
2022/10/28 08:18:45;;;;;;;0.80;0.80;;;15.20;84.80;14.70;96708.00;;;;5094742;28;20279;-56
2022/10/28 08:21:14;;;;;;;0.97;0.90;;;15.20;85.00;14.70;96708.00;;;;5095741;28;20255;-58
2022/10/28 08:23:45;;;;;;;1.33;1.00;;;15.30;85.10;14.70;96718.00;;;;5096613;28;20214;-56
2022/10/28 08:26:13;;;;;;;1.70;1.60;;;15.30;84.70;14.70;96706.00;;;;5096650;28;20222;-57
2022/10/28 08:28:42;;;;;;;0.93;0.93;;;15.30;85.50;14.60;96703.00;;;;5096517;28;20218;-55
2022/10/28 08:31:11;;;;;;;3.80;1.67;;;15.20;85.50;14.60;96714.00;;;;5096658;28;20666;-55
2022/10/28 08:33:41;;;;;;;1.33;1.33;;;15.30;85.80;14.70;96711.00;;;;5078581;28;20527;-57
2022/10/28 08:36:11;;;;;;;0.57;0.57;;;15.30;84.70;14.90;96719.00;;;;5096306;28;20191;-53
2022/10/28 08:38:38;;;;;;;0.70;0.70;;;15.40;83.80;15.10;96709.00;;;;5078831;28;20214;-56
2022/10/28 08:41:23;;;;;;;1.77;1.33;;;15.50;83.40;15.10;96710.00;;;;5078358;28;20250;-56
2022/10/28 08:44:19;;;;;;;2.10;0.80;;;15.70;84.10;15.30;96716.00;;;;5096242;28;20623;-54
2022/10/28 08:47:05;;;;;;;0.80;0.80;;;15.80;82.00;15.40;96716.00;;;;5096183;28;20222;-55
2022/10/28 08:49:38;;;;;;;1.10;1.10;;;15.90;83.30;15.40;96726.00;;;;5095184;28;20521;-56
2022/10/28 08:52:23;;;;;;;12.00;1.43;;;15.90;84.60;15.10;96749.00;;;;5096251;28;20218;-57
2022/10/28 08:54:54;;;;;;;1.30;1.23;;;15.80;84.40;15.20;96757.00;;;;5096137;28;20267;-54
2022/10/28 08:57:31;;;;;;;0.90;0.90;;;15.70;81.70;15.10;96698.00;;;;5095040;28;20258;-56
2022/10/28 08:59:59;;;;;;;0.90;0.90;;;15.60;81.00;15.10;96680.00;;;;5096103;28;20221;-56
2022/10/28 09:02:35;;;;;;;4.83;2.17;;;15.70;83.30;15.10;96670.00;;;;5095757;28;20523;-55
2022/10/28 09:05:18;;;;;;;1.60;1.27;;;15.70;84.50;15.30;96703.00;;;;5095483;28;20209;-57
2022/10/28 09:07:45;;;;;;;0.77;0.77;;;15.80;84.10;15.30;96695.00;;;;5096193;28;20560;-58
2022/10/28 09:10:15;;;;;;;0.70;0.70;;;15.80;83.70;15.40;96705.00;;;;5078196;28;20351;-55
2022/10/28 09:12:53;;;;;;;0.83;0.83;;;16.00;84.20;15.50;96690.00;;;;5095967;28;20230;-59
2022/10/28 09:15:35;;;;;;;1.13;1.13;;;16.00;84.00;15.70;96702.00;;;;5095759;28;20222;-57
2022/10/28 09:18:17;;;;;;;1.27;1.27;;;16.20;83.20;15.90;96698.00;;;;5095660;28;20252;-55
2022/10/28 09:20:53;;;;;;;1.00;1.00;;;16.30;83.30;16.00;96703.00;;;;5095505;28;20218;-53
2022/10/28 09:23:23;;;;;;;0.63;0.63;;;16.40;82.30;16.00;96703.00;;;;5077565;28;20194;-54
2022/10/28 09:26:13;;;;;;;1.27;1.20;;;16.50;82.20;16.20;96713.00;;;;5094279;28;20241;-55
2022/10/28 09:28:59;;;;;;;0.70;0.70;;;16.60;80.90;16.30;96699.00;;;;5095109;28;20518;-56
2022/10/28 09:31:34;;;;;;;2.93;1.23;;;16.70;79.40;16.40;96702.00;;;;5095351;28;20571;-56
2022/10/28 09:34:19;;;;;;;1.17;1.17;;;16.90;79.30;16.50;96696.00;;;;5095278;28;20654;-55
2022/10/28 09:36:55;;;;;;;2.73;1.20;;;17.00;77.40;16.60;96705.00;;;;5095120;28;20744;-55
2022/10/28 09:39:28;;;;;;;1.37;1.27;;;17.10;77.80;16.70;96705.00;;;;5095131;28;20654;-56
2022/10/28 09:42:00;;;;;;;11.93;1.70;;;17.20;77.40;16.80;96704.00;;;;5095293;28;20205;-57
2022/10/28 09:44:38;;;;;;;2.03;1.93;;;17.20;77.10;16.80;96709.00;;;;5095119;28;20223;-56
2022/10/28 09:47:15;;;;;;;11.97;1.63;;;17.30;76.40;16.90;96712.00;;;;5077235;28;20198;-56
2022/10/28 09:49:46;;;;;;;0.93;0.93;;;17.40;78.30;16.90;96713.00;;;;5077196;28;20246;-54
2022/10/28 09:52:21;;;;;;;0.70;0.70;;;17.50;78.80;17.00;96704.00;;;;5095222;28;20259;-54
2022/10/28 09:54:52;;;;;;;0.77;0.77;;;17.50;77.60;17.00;96692.00;;;;5094039;28;20257;-55
2022/10/28 09:57:21;;;;;;;1.10;1.03;;;17.60;76.10;16.80;96686.00;;;;5094962;28;20226;-55
2022/10/28 09:59:47;;;;;;;4.43;1.13;;;17.30;79.60;16.70;96690.00;;;;5095086;28;20217;-54
2022/10/28 10:02:28;;;;;;;1.50;1.00;;;17.30;77.50;16.80;96701.00;;;;5095024;28;20206;-56
2022/10/28 10:04:56;;;;;;;1.30;1.20;;;17.30;77.80;16.90;96710.00;;;;5094912;28;20272;-55
2022/10/28 10:07:34;;;;;;;1.50;1.07;;;17.40;76.80;17.00;96710.00;;;;5094915;28;20238;-56
2022/10/28 10:10:05;;;;;;;0.70;0.70;;;17.50;76.50;17.10;96701.00;;;;5094901;28;20198;-56
2022/10/28 10:12:33;;;;;;;3.20;1.40;;;17.60;75.70;17.30;96705.00;;;;5094862;28;20301;-55
2022/10/28 10:15:01;;;;;;;6.43;1.10;;;17.70;75.50;17.40;96707.00;;;;5094868;28;20222;-56
2022/10/28 10:17:37;;;;;;;0.70;0.70;;;17.80;72.90;17.50;96701.00;;;;5094767;28;20215;-57
2022/10/28 10:20:08;;;;;;;0.97;0.97;;;18.00;72.70;17.70;96708.00;;;;5094902;28;20178;-56
2022/10/28 10:22:38;;;;;;;0.90;0.90;;;18.00;72.40;17.90;96699.00;;;;5095043;28;20206;-54
2022/10/28 10:25:29;;;;;;;4.40;1.63;;;18.30;70.50;18.00;96701.00;;;;5076841;28;20206;-56
2022/10/28 10:27:59;;;;;;;19.20;1.80;;;18.40;70.50;18.10;96704.00;;;;5094676;28;20195;-56
2022/10/28 10:30:31;;;;;;;1.43;1.33;;;18.50;69.70;18.20;96701.00;;;;5094406;28;20223;-56
2022/10/28 10:32:58;;;;;;;1.10;0.97;;;18.60;69.00;18.60;96707.00;;;;5076697;28;20214;-55
2022/10/28 10:35:28;;;;;;;0.87;0.70;;;18.90;70.60;18.90;96712.00;;;;5093422;28;20230;-55
2022/10/28 10:37:58;;;;;;;6.53;0.80;;;19.20;69.10;19.10;96715.00;;;;5094321;28;20210;-55
2022/10/28 10:40:29;;;;;;;0.80;0.80;;;19.40;67.70;19.20;96701.00;;;;5094051;28;20226;-55
2022/10/28 10:43:13;;;;;;;0.70;0.70;;;;;19.40;96705.00;;;;5094526;28;20194;-55
2022/10/28 10:45:41;;;;;;;1.20;1.13;;;19.70;64.80;19.40;96708.00;;;;5094558;28;20202;-55
2022/10/28 10:48:14;;;;;;;0.73;0.73;;;19.80;63.10;19.20;96696.00;;;;5094416;28;20211;-55
2022/10/28 10:50:43;;;;;;;0.93;0.90;;;19.60;63.90;19.20;96706.00;;;;5094270;28;20195;-54
2022/10/28 10:53:22;;;;;;;1.60;1.23;;;19.70;65.10;19.20;96712.00;;;;5094042;28;20303;-56
2022/10/28 10:55:56;;;;;;;1.20;1.20;;;19.70;64.90;19.20;96703.00;;;;5094088;28;20199;-55
2022/10/28 10:58:27;;;;;;;0.77;0.73;;;19.60;65.40;19.00;96708.00;;;;5093867;28;20288;-54
2022/10/28 11:00:58;;;;;;;0.50;0.50;;;19.50;65.70;19.00;96710.00;;;;5092994;28;20222;-56
2022/10/28 11:03:30;;;;;;;0.70;0.70;;;19.50;65.80;18.90;96714.00;;;;5093860;28;20649;-55
2022/10/28 11:06:00;;;;;;;0.67;0.67;;;19.40;66.50;18.90;96699.00;;;;5094017;28;20218;-55
2022/10/28 11:08:37;;;;;;;0.50;0.50;;;19.40;68.90;18.70;96684.00;;;;5076187;28;20211;-54
2022/10/28 11:11:13;;;;;;;0.63;0.63;;;19.20;69.40;18.50;96676.00;;;;5093827;28;20225;-59
2022/10/28 11:13:43;;;;;;;0.87;0.87;;;19.10;69.00;18.60;96656.00;;;;5093833;28;20217;-55